createdAt,value
2018-12-05T00:00:05.342Z,-0.50
2018-12-05T00:01:08.002Z,-0.50
2018-12-05T00:02:04.876Z,-0.50
2018-12-05T00:03:04.911Z,-0.50
2018-12-05T00:04:05.116Z,-0.50
2018-12-05T00:05:10.325Z,-0.50
2018-12-05T00:06:05.251Z,-0.50
2018-12-05T00:07:05.675Z,-0.50
2018-12-05T00:08:04.855Z,-0.50
2018-12-05T00:09:04.967Z,-0.50
2018-12-05T00:10:07.515Z,-0.60
2018-12-05T00:11:05.401Z,-0.60
2018-12-05T00:12:08.122Z,-0.60
2018-12-05T00:13:05.035Z,-0.60
2018-12-05T00:14:05.144Z,-0.60
2018-12-05T00:15:05.162Z,-0.60
2018-12-05T00:16:05.215Z,-0.60
2018-12-05T00:17:07.831Z,-0.60
2018-12-05T00:18:04.764Z,-0.60
2018-12-05T00:19:04.733Z,-0.60
2018-12-05T00:20:04.906Z,-0.60
2018-12-05T00:21:05.037Z,-0.60
2018-12-05T00:22:05.175Z,-0.50
2018-12-05T00:23:05.282Z,-0.50
2018-12-05T00:24:08.921Z,-0.50
2018-12-05T00:25:05.020Z,-0.50
2018-12-05T00:26:05.198Z,-0.50
2018-12-05T00:27:05.481Z,-0.50
2018-12-05T00:28:05.615Z,-0.50
2018-12-05T00:29:05.017Z,-0.60
2018-12-05T00:30:05.166Z,-0.60
2018-12-05T00:31:05.221Z,-0.60
2018-12-05T00:32:07.748Z,-0.60
2018-12-05T00:33:04.723Z,-0.60
2018-12-05T00:34:04.718Z,-0.60
2018-12-05T00:35:04.749Z,-0.60
2018-12-05T00:36:04.807Z,-0.60
2018-12-05T00:37:04.863Z,-0.60
2018-12-05T00:38:07.574Z,-0.60
2018-12-05T00:39:05.447Z,-0.60
2018-12-05T00:40:08.021Z,-0.60
2018-12-05T00:41:04.945Z,-0.60
2018-12-05T00:42:05.136Z,-0.60
2018-12-05T00:43:05.238Z,-0.60
2018-12-05T00:44:05.333Z,-0.60
2018-12-05T00:45:05.398Z,-0.60
2018-12-05T00:46:05.428Z,-0.60
2018-12-05T00:47:05.446Z,-0.50
2018-12-05T00:48:07.967Z,-0.50
2018-12-05T00:49:05.001Z,-0.60
2018-12-05T00:50:07.585Z,-0.50
2018-12-05T00:51:08.234Z,-0.50
2018-12-05T00:52:05.250Z,-0.50
2018-12-05T00:53:05.377Z,-0.50
2018-12-05T00:54:05.509Z,-0.50
2018-12-05T00:55:08.258Z,-0.50
2018-12-05T00:56:05.147Z,-0.60
2018-12-05T00:57:05.144Z,-0.50
2018-12-05T00:58:05.265Z,-0.50
2018-12-05T00:59:05.366Z,-0.50
2018-12-05T01:00:05.507Z,-0.50
2018-12-05T01:01:08.089Z,-0.50
2018-12-05T01:02:10.159Z,-0.50
2018-12-05T01:03:05.138Z,-0.50
2018-12-05T01:04:05.187Z,-0.50
2018-12-05T01:05:05.186Z,-0.50
2018-12-05T01:06:07.756Z,-0.40
2018-12-05T01:07:04.747Z,-0.50
2018-12-05T01:08:07.357Z,-0.50
2018-12-05T01:09:05.431Z,-0.50
2018-12-05T01:10:10.627Z,-0.50
2018-12-05T01:11:05.555Z,-0.50
2018-12-05T01:12:08.101Z,-0.50
2018-12-05T01:13:07.707Z,-0.50
2018-12-05T01:14:08.121Z,-0.50
2018-12-05T01:15:05.125Z,-0.50
2018-12-05T01:16:05.111Z,-0.50
2018-12-05T01:17:07.673Z,-0.50
2018-12-05T01:18:05.602Z,-0.50
2018-12-05T01:19:04.683Z,-0.50
2018-12-05T01:20:04.705Z,-0.50
2018-12-05T01:21:04.769Z,-0.50
2018-12-05T01:22:04.855Z,-0.50
2018-12-05T01:23:04.895Z,-0.40
2018-12-05T01:24:04.974Z,-0.50
2018-12-05T01:25:05.098Z,-0.40
2018-12-05T01:26:05.214Z,-0.40
2018-12-05T01:27:05.242Z,-0.40
2018-12-05T01:28:05.362Z,-0.40
2018-12-05T01:29:04.687Z,-0.40
2018-12-05T01:30:04.851Z,-0.40
2018-12-05T01:31:04.969Z,-0.40
2018-12-05T01:32:07.563Z,-0.40
2018-12-05T01:33:05.578Z,-0.40
2018-12-05T01:34:05.726Z,-0.30
2018-12-05T01:35:07.286Z,-0.40
2018-12-05T01:36:05.207Z,-0.40
2018-12-05T01:37:05.262Z,-0.30
2018-12-05T01:38:07.851Z,-0.30
2018-12-05T01:39:07.302Z,-0.30
2018-12-05T01:40:05.276Z,-0.30
2018-12-05T01:41:05.260Z,-0.30
2018-12-05T01:42:07.664Z,-0.30
2018-12-05T01:43:05.566Z,-0.30
2018-12-05T01:44:04.821Z,-0.30
2018-12-05T01:45:04.927Z,-0.30
2018-12-05T01:46:07.521Z,-0.30
2018-12-05T01:47:10.612Z,-0.30
2018-12-05T01:48:05.602Z,-0.30
2018-12-05T01:49:05.126Z,-0.30
2018-12-05T01:50:05.142Z,-0.30
2018-12-05T01:51:07.853Z,-0.30
2018-12-05T01:52:07.482Z,-0.30
2018-12-05T01:53:07.948Z,-0.30
2018-12-05T01:54:07.413Z,-0.30
2018-12-05T01:55:07.933Z,-0.30
2018-12-05T01:56:07.416Z,-0.40
2018-12-05T01:57:05.279Z,-0.40
2018-12-05T01:58:07.892Z,-0.40
2018-12-05T01:59:07.290Z,-0.40
2018-12-05T02:00:05.131Z,-0.40
2018-12-05T02:01:05.397Z,-0.40
2018-12-05T02:02:05.456Z,-0.40
2018-12-05T02:03:05.617Z,-0.40
2018-12-05T02:04:04.861Z,-0.40
2018-12-05T02:05:07.569Z,-0.30
2018-12-05T02:06:05.671Z,-0.40
2018-12-05T02:07:04.897Z,-0.30
2018-12-05T02:08:05.039Z,-0.30
2018-12-05T02:09:05.114Z,-0.30
2018-12-05T02:10:05.226Z,-0.30
2018-12-05T02:11:07.766Z,-0.30
2018-12-05T02:12:04.688Z,-0.30
2018-12-05T02:13:04.938Z,-0.30
2018-12-05T02:14:07.691Z,-0.20
2018-12-05T02:15:08.141Z,-0.20
2018-12-05T02:16:07.711Z,-0.20
2018-12-05T02:17:08.288Z,-0.20
2018-12-05T02:18:07.939Z,-0.20
2018-12-05T02:19:09.934Z,-0.20
2018-12-05T02:20:04.880Z,-0.20
2018-12-05T02:21:07.567Z,-0.20
2018-12-05T02:22:05.491Z,-0.20
2018-12-05T02:23:05.540Z,-0.20
2018-12-05T02:24:05.607Z,-0.20
2018-12-05T02:25:04.770Z,-0.20
2018-12-05T02:26:04.780Z,-0.20
2018-12-05T02:27:07.709Z,-0.20
2018-12-05T02:28:04.800Z,-0.20
2018-12-05T02:29:05.172Z,-0.20
2018-12-05T02:30:07.891Z,-0.30
2018-12-05T02:31:07.359Z,-0.30
2018-12-05T02:32:05.307Z,-0.30
2018-12-05T02:33:07.896Z,-0.30
2018-12-05T02:34:07.400Z,-0.30
2018-12-05T02:35:05.293Z,-0.40
2018-12-05T02:36:05.322Z,-0.30
2018-12-05T02:37:07.998Z,-0.30
2018-12-05T02:38:07.480Z,-0.40
2018-12-05T02:39:07.988Z,-0.40
2018-12-05T02:40:07.624Z,-0.40
2018-12-05T02:41:08.116Z,-0.40
2018-12-05T02:42:05.004Z,-0.30
2018-12-05T02:43:05.093Z,-0.40
2018-12-05T02:44:07.799Z,-0.30
2018-12-05T02:45:07.420Z,-0.30
2018-12-05T02:46:05.346Z,-0.40
2018-12-05T02:47:10.566Z,-0.40
2018-12-05T02:48:05.571Z,-0.40
2018-12-05T02:49:04.974Z,-0.30
2018-12-05T02:50:05.016Z,-0.30
2018-12-05T02:51:05.120Z,-0.30
2018-12-05T02:52:05.107Z,-0.40
2018-12-05T02:53:07.772Z,-0.30
2018-12-05T02:54:04.726Z,-0.40
2018-12-05T02:55:07.389Z,-0.30
2018-12-05T02:56:07.938Z,-0.40
2018-12-05T02:57:07.296Z,-0.30
2018-12-05T02:58:07.893Z,-0.40
2018-12-05T02:59:07.321Z,-0.40
2018-12-05T03:00:05.152Z,-0.40
2018-12-05T03:01:07.739Z,-0.40
2018-12-05T03:02:04.650Z,-0.40
2018-12-05T03:03:04.834Z,-0.40
2018-12-05T03:04:05.017Z,-0.40
2018-12-05T03:05:10.298Z,-0.40
2018-12-05T03:06:07.730Z,-0.40
2018-12-05T03:07:04.712Z,-0.40
2018-12-05T03:08:04.748Z,-0.40
2018-12-05T03:09:07.329Z,-0.40
2018-12-05T03:10:07.756Z,-0.40
2018-12-05T03:11:05.736Z,-0.40
2018-12-05T03:12:04.853Z,-0.50
2018-12-05T03:13:07.549Z,-0.40
2018-12-05T03:14:05.499Z,-0.40
2018-12-05T03:15:08.097Z,-0.50
2018-12-05T03:16:04.965Z,-0.50
2018-12-05T03:17:05.083Z,-0.40
2018-12-05T03:18:05.265Z,-0.50
2018-12-05T03:19:07.807Z,-0.40
2018-12-05T03:20:05.415Z,-0.50
2018-12-05T03:21:05.646Z,-0.40
2018-12-05T03:22:13.371Z,-0.40
2018-12-05T03:23:07.765Z,-0.40
2018-12-05T03:24:04.755Z,-0.50
2018-12-05T03:25:07.345Z,-0.50
2018-12-05T03:26:07.969Z,-0.50
2018-12-05T03:27:07.430Z,-0.50
2018-12-05T03:28:07.910Z,-0.50
2018-12-05T03:29:06.604Z,-0.50
2018-12-05T03:30:04.836Z,-0.50
2018-12-05T03:31:07.587Z,-0.50
2018-12-05T03:32:05.584Z,-0.50
2018-12-05T03:33:04.714Z,-0.50
2018-12-05T03:34:04.784Z,-0.50
2018-12-05T03:35:07.434Z,-0.50
2018-12-05T03:36:08.037Z,-0.50
2018-12-05T03:37:05.002Z,-0.50
2018-12-05T03:38:04.972Z,-0.50
2018-12-05T03:39:07.534Z,-0.50
2018-12-05T03:40:05.363Z,-0.50
2018-12-05T03:41:05.405Z,-0.50
2018-12-05T03:42:05.449Z,-0.50
2018-12-05T03:43:05.537Z,-0.50
2018-12-05T03:44:05.734Z,-0.50
2018-12-05T03:45:07.269Z,-0.50
2018-12-05T03:46:07.716Z,-0.50
2018-12-05T03:47:05.674Z,-0.50
2018-12-05T03:48:07.256Z,-0.50
2018-12-05T03:49:05.202Z,-0.50
2018-12-05T03:50:05.348Z,-0.50
2018-12-05T03:51:05.431Z,-0.40
2018-12-05T03:52:05.482Z,-0.50
2018-12-05T03:53:08.072Z,-0.50
2018-12-05T03:54:05.002Z,-0.50
2018-12-05T03:55:05.108Z,-0.50
2018-12-05T03:56:07.750Z,-0.40
2018-12-05T03:57:05.648Z,-0.40
2018-12-05T03:58:04.689Z,-0.40
2018-12-05T03:59:07.340Z,-0.40
2018-12-05T04:00:05.370Z,-0.40
2018-12-05T04:01:05.567Z,-0.40
2018-12-05T04:02:04.757Z,-0.40
2018-12-05T04:03:05.118Z,-0.40
2018-12-05T04:04:10.385Z,-0.40
2018-12-05T04:05:05.363Z,-0.40
2018-12-05T04:06:10.560Z,-0.40
2018-12-05T04:07:08.039Z,-0.40
2018-12-05T04:08:05.022Z,-0.40
2018-12-05T04:09:05.092Z,-0.40
2018-12-05T04:10:05.165Z,-0.40
2018-12-05T04:11:10.447Z,-0.40
2018-12-05T04:12:05.399Z,-0.40
2018-12-05T04:13:07.970Z,-0.40
2018-12-05T04:14:13.468Z,-0.40
2018-12-05T04:15:05.433Z,-0.40
2018-12-05T04:16:08.127Z,-0.40
2018-12-05T04:17:07.621Z,-0.40
2018-12-05T04:18:05.665Z,-0.40
2018-12-05T04:19:04.709Z,-0.40
2018-12-05T04:20:07.303Z,-0.40
2018-12-05T04:21:05.251Z,-0.40
2018-12-05T04:22:05.372Z,-0.40
2018-12-05T04:23:05.532Z,-0.40
2018-12-05T04:24:05.564Z,-0.40
2018-12-05T04:25:08.122Z,-0.40
2018-12-05T04:26:05.094Z,-0.40
2018-12-05T04:27:05.110Z,-0.40
2018-12-05T04:28:05.220Z,-0.40
2018-12-05T04:29:04.694Z,-0.40
2018-12-05T04:30:04.752Z,-0.50
2018-12-05T04:31:04.815Z,-0.40
2018-12-05T04:32:04.927Z,-0.50
2018-12-05T04:33:05.039Z,-0.50
2018-12-05T04:34:05.098Z,-0.40
2018-12-05T04:35:07.670Z,-0.50
2018-12-05T04:36:05.562Z,-0.40
2018-12-05T04:37:08.075Z,-0.50
2018-12-05T04:38:07.580Z,-0.50
2018-12-05T04:39:07.996Z,-0.50
2018-12-05T04:40:04.856Z,-0.50
2018-12-05T04:41:05.052Z,-0.40
2018-12-05T04:42:05.162Z,-0.50
2018-12-05T04:43:05.390Z,-0.50
2018-12-05T04:44:08.216Z,-0.50
2018-12-05T04:45:05.170Z,-0.50
2018-12-05T04:46:07.806Z,-0.50
2018-12-05T04:47:04.802Z,-0.50
2018-12-05T04:48:04.845Z,-0.40
2018-12-05T04:49:05.048Z,-0.40
2018-12-05T04:50:05.137Z,-0.50
2018-12-05T04:51:07.896Z,-0.40
2018-12-05T04:52:04.817Z,-0.50
2018-12-05T04:53:07.357Z,-0.50
2018-12-05T04:54:05.309Z,-0.50
2018-12-05T04:55:05.304Z,-0.50
2018-12-05T04:56:05.374Z,-0.50
2018-12-05T04:57:08.084Z,-0.50
2018-12-05T04:58:07.524Z,-0.50
2018-12-05T04:59:05.412Z,-0.50
2018-12-05T05:00:05.460Z,-0.50
2018-12-05T05:01:08.087Z,-0.50
2018-12-05T05:02:07.647Z,-0.50
2018-12-05T05:03:08.171Z,-0.50
2018-12-05T05:04:07.617Z,-0.50
2018-12-05T05:05:05.520Z,-0.60
2018-12-05T05:06:05.512Z,-0.60
2018-12-05T05:07:07.034Z,-0.50
2018-12-05T05:08:07.761Z,-0.60
2018-12-05T05:09:05.784Z,-0.50
2018-12-05T05:10:04.985Z,-0.50
2018-12-05T05:11:05.053Z,-0.50
2018-12-05T05:12:04.997Z,-0.50
2018-12-05T05:13:07.584Z,-0.50
2018-12-05T05:14:05.471Z,-0.50
2018-12-05T05:15:05.638Z,-0.50
2018-12-05T05:16:04.705Z,-0.50
2018-12-05T05:17:04.891Z,-0.50
2018-12-05T05:18:04.927Z,-0.60
2018-12-05T05:19:05.030Z,-0.60
2018-12-05T05:20:05.144Z,-0.60
2018-12-05T05:21:05.331Z,-0.60
2018-12-05T05:22:08.056Z,-0.60
2018-12-05T05:23:07.515Z,-0.60
2018-12-05T05:24:05.387Z,-0.60
2018-12-05T05:25:06.133Z,-0.60
2018-12-05T05:26:05.145Z,-0.70
2018-12-05T05:27:05.239Z,-0.70
2018-12-05T05:28:05.237Z,-0.70
2018-12-05T05:29:04.860Z,-0.70
2018-12-05T05:30:04.851Z,-0.70
2018-12-05T05:31:04.941Z,-0.70
2018-12-05T05:32:04.956Z,-0.80
2018-12-05T05:33:10.220Z,-0.80
2018-12-05T05:34:05.177Z,-0.80
2018-12-05T05:35:05.335Z,-0.80
2018-12-05T05:36:08.028Z,-0.90
2018-12-05T05:37:05.057Z,-0.90
2018-12-05T05:38:07.676Z,-0.90
2018-12-05T05:39:05.586Z,-0.90
2018-12-05T05:40:05.602Z,-0.90
2018-12-05T05:41:04.628Z,-1.00
2018-12-05T05:42:07.355Z,-1.00
2018-12-05T05:43:05.237Z,-1.00
2018-12-05T05:44:05.260Z,-1.00
2018-12-05T05:45:07.903Z,-1.10
2018-12-05T05:46:07.480Z,-1.10
2018-12-05T05:47:08.331Z,-1.00
2018-12-05T05:48:10.390Z,-1.10
2018-12-05T05:49:05.331Z,-1.10
2018-12-05T05:50:05.379Z,-1.10
2018-12-05T05:51:05.487Z,-1.10
2018-12-05T05:52:08.077Z,-1.10
2018-12-05T05:53:08.034Z,-1.10
2018-12-05T05:54:05.065Z,-1.20
2018-12-05T05:55:07.783Z,-1.10
2018-12-05T05:56:13.524Z,-1.10
2018-12-05T05:57:05.482Z,-1.20
2018-12-05T05:58:08.204Z,-1.20
2018-12-05T05:59:05.177Z,-1.10
2018-12-05T06:00:07.733Z,-1.20
2018-12-05T06:01:05.623Z,-1.20
2018-12-05T06:02:07.306Z,-1.30
2018-12-05T06:03:05.290Z,-1.20
2018-12-05T06:04:05.393Z,-1.20
2018-12-05T06:05:05.452Z,-1.30
2018-12-05T06:06:05.460Z,-1.30
2018-12-05T06:07:05.522Z,-1.30
2018-12-05T06:08:05.552Z,-1.30
2018-12-05T06:09:05.646Z,-1.30
2018-12-05T06:10:07.234Z,-1.30
2018-12-05T06:11:05.274Z,-1.30
2018-12-05T06:12:10.496Z,-1.40
2018-12-05T06:13:05.355Z,-1.40
2018-12-05T06:14:07.935Z,-1.40
2018-12-05T06:15:04.948Z,-1.40
2018-12-05T06:16:05.088Z,-1.40
2018-12-05T06:17:07.817Z,-1.50
2018-12-05T06:18:04.829Z,-1.50
2018-12-05T06:19:05.395Z,-1.50
2018-12-05T06:20:05.570Z,-1.50
2018-12-05T06:21:10.731Z,-1.50
2018-12-05T06:22:07.257Z,-1.50
2018-12-05T06:23:07.756Z,-1.60
2018-12-05T06:24:04.687Z,-1.60
2018-12-05T06:25:07.315Z,-1.60
2018-12-05T06:26:07.896Z,-1.60
2018-12-05T06:27:04.830Z,-1.60
2018-12-05T06:28:07.440Z,-1.60
2018-12-05T06:29:07.861Z,-1.60
2018-12-05T06:30:07.346Z,-1.60
2018-12-05T06:31:05.343Z,-1.60
2018-12-05T06:32:05.564Z,-1.60
2018-12-05T06:33:04.717Z,-1.60
2018-12-05T06:34:07.477Z,-1.60
2018-12-05T06:35:05.439Z,-1.60
2018-12-05T06:36:04.959Z,-1.60
2018-12-05T06:37:10.127Z,-1.60
2018-12-05T06:38:07.684Z,-1.60
2018-12-05T06:39:05.600Z,-1.60
2018-12-05T06:40:07.188Z,-1.60
2018-12-05T06:41:05.110Z,-1.60
2018-12-05T06:42:05.250Z,-1.60
2018-12-05T06:43:07.848Z,-1.70
2018-12-05T06:44:04.974Z,-1.70
2018-12-05T06:45:05.038Z,-1.70
2018-12-05T06:46:07.762Z,-1.70
2018-12-05T06:47:07.424Z,-1.60
2018-12-05T06:48:05.415Z,-1.70
2018-12-05T06:49:05.551Z,-1.70
2018-12-05T06:50:07.213Z,-1.70
2018-12-05T06:51:05.280Z,-1.70
2018-12-05T06:52:05.540Z,-1.70
2018-12-05T06:53:08.150Z,-1.80
2018-12-05T06:54:07.591Z,-1.80
2018-12-05T06:55:10.644Z,-1.80
2018-12-05T06:56:05.631Z,-1.80
2018-12-05T06:57:04.695Z,-1.80
2018-12-05T06:58:04.863Z,-1.80
2018-12-05T06:59:04.970Z,-1.80
2018-12-05T07:00:08.202Z,-1.90
2018-12-05T07:01:05.270Z,-1.80
2018-12-05T07:02:05.340Z,-1.90
2018-12-05T07:03:07.935Z,-1.90
2018-12-05T07:04:04.942Z,-1.90
2018-12-05T07:05:07.590Z,-1.90
2018-12-05T07:06:05.578Z,-1.90
2018-12-05T07:07:07.336Z,-1.90
2018-12-05T07:08:05.270Z,-1.90
2018-12-05T07:09:05.711Z,-1.90
2018-12-05T07:10:04.800Z,-1.90
2018-12-05T07:11:04.962Z,-1.90
2018-12-05T07:12:05.059Z,-1.80
2018-12-05T07:13:07.670Z,-1.80
2018-12-05T07:14:05.747Z,-1.90
2018-12-05T07:15:04.825Z,-1.90
2018-12-05T07:16:04.927Z,-1.90
2018-12-05T07:17:07.655Z,-1.90
2018-12-05T07:18:05.598Z,-1.90
2018-12-05T07:19:04.727Z,-1.90
2018-12-05T07:20:04.775Z,-1.80
2018-12-05T07:21:04.816Z,-1.90
2018-12-05T07:22:04.830Z,-1.90
2018-12-05T07:23:07.391Z,-1.90
2018-12-05T07:24:08.990Z,-1.90
2018-12-05T07:25:07.717Z,-1.90
2018-12-05T07:26:04.710Z,-1.90
2018-12-05T07:27:04.829Z,-1.90
2018-12-05T07:28:05.036Z,-1.90
2018-12-05T07:29:05.189Z,-1.90
2018-12-05T07:30:05.286Z,-1.90
2018-12-05T07:31:05.409Z,-1.80
2018-12-05T07:32:05.441Z,-1.90
2018-12-05T07:33:05.589Z,-1.90
2018-12-05T07:34:05.628Z,-1.90
2018-12-05T07:35:04.683Z,-1.90
2018-12-05T07:36:07.404Z,-1.90
2018-12-05T07:37:07.869Z,-1.90
2018-12-05T07:38:07.364Z,-1.80
2018-12-05T07:39:07.800Z,-1.80
2018-12-05T07:40:04.786Z,-1.80
2018-12-05T07:41:04.896Z,-1.80
2018-12-05T07:42:07.564Z,-1.80
2018-12-05T07:43:05.600Z,-1.80
2018-12-05T07:44:07.537Z,-1.80
2018-12-05T07:45:05.441Z,-1.80
2018-12-05T07:46:05.644Z,-1.80
2018-12-05T07:47:07.271Z,-1.80
2018-12-05T07:48:07.913Z,-1.80
2018-12-05T07:49:07.400Z,-1.70
2018-12-05T07:50:05.377Z,-1.80
2018-12-05T07:51:05.463Z,-1.80
2018-12-05T07:52:10.607Z,-1.80
2018-12-05T07:53:05.584Z,-1.80
2018-12-05T07:54:04.674Z,-1.70
2018-12-05T07:55:05.170Z,-1.70
2018-12-05T07:56:05.286Z,-1.70
2018-12-05T07:57:05.507Z,-1.70
2018-12-05T07:58:05.677Z,-1.70
2018-12-05T07:59:04.821Z,-1.70
2018-12-05T08:00:07.449Z,-1.70
2018-12-05T08:01:05.351Z,-1.70
2018-12-05T08:02:08.070Z,-1.70
2018-12-05T08:03:05.102Z,-1.70
2018-12-05T08:04:05.308Z,-1.70
2018-12-05T08:05:05.714Z,-1.60
2018-12-05T08:06:04.811Z,-1.60
2018-12-05T08:07:05.428Z,-1.60
2018-12-05T08:08:08.095Z,-1.60
2018-12-05T08:09:05.223Z,-1.60
2018-12-05T08:10:07.952Z,-1.60
2018-12-05T08:11:07.580Z,-1.50
2018-12-05T08:12:08.187Z,-1.60
2018-12-05T08:13:07.603Z,-1.50
2018-12-05T08:14:06.590Z,-1.50
2018-12-05T08:15:04.833Z,-1.50
2018-12-05T08:16:05.021Z,-1.50
2018-12-05T08:17:05.180Z,-1.40
2018-12-05T08:18:05.204Z,-1.40
2018-12-05T08:19:05.333Z,-1.40
2018-12-05T08:20:05.437Z,-1.40
2018-12-05T08:21:08.089Z,-1.30
2018-12-05T08:22:07.628Z,-1.30
2018-12-05T08:23:05.641Z,-1.30
2018-12-05T08:24:04.719Z,-1.30
2018-12-05T08:25:04.816Z,-1.20
2018-12-05T08:26:04.998Z,-1.20
2018-12-05T08:27:05.144Z,-1.20
2018-12-05T08:28:05.210Z,-1.10
2018-12-05T08:29:05.503Z,-1.10
2018-12-05T08:30:08.161Z,-1.10
2018-12-05T08:31:05.131Z,-1.10
2018-12-05T08:32:05.498Z,-1.00
2018-12-05T08:33:04.739Z,-1.00
2018-12-05T08:34:04.798Z,-1.00
2018-12-05T08:35:07.524Z,-0.90
2018-12-05T08:36:08.135Z,-0.90
2018-12-05T08:37:07.604Z,-0.80
2018-12-05T08:38:05.781Z,-0.80
2018-12-05T08:39:05.225Z,-0.80
2018-12-05T08:40:05.328Z,-0.80
2018-12-05T08:41:05.402Z,-0.80
2018-12-05T08:42:08.062Z,-0.70
2018-12-05T08:43:05.011Z,-0.70
2018-12-05T08:44:10.231Z,-0.70
2018-12-05T08:45:05.178Z,-0.70
2018-12-05T08:46:05.336Z,-0.60
2018-12-05T08:47:08.082Z,-0.60
2018-12-05T08:48:07.614Z,-0.50
2018-12-05T08:49:08.027Z,-0.50
2018-12-05T08:50:07.552Z,-0.50
2018-12-05T08:51:05.514Z,-0.50
2018-12-05T08:52:05.612Z,-0.40
2018-12-05T08:53:04.721Z,-0.40
2018-12-05T08:54:05.456Z,-0.40
2018-12-05T08:55:08.088Z,-0.30
2018-12-05T08:56:05.006Z,-0.30
2018-12-05T08:57:05.107Z,-0.30
2018-12-05T08:58:07.805Z,-0.30
2018-12-05T08:59:04.805Z,-0.20
2018-12-05T09:00:05.063Z,-0.20
2018-12-05T09:01:05.215Z,-0.20
2018-12-05T09:02:07.935Z,-0.10
2018-12-05T09:03:07.392Z,-0.10
2018-12-05T09:04:07.911Z,-0.10
2018-12-05T09:05:05.029Z,-0.10
2018-12-05T09:06:05.121Z,0.00
2018-12-05T09:07:05.178Z,-0.10
2018-12-05T09:08:05.259Z,0.00
2018-12-05T09:09:05.376Z,0.00
2018-12-05T09:10:07.992Z,0.10
2018-12-05T09:11:04.952Z,0.10
2018-12-05T09:12:05.043Z,0.10
2018-12-05T09:13:05.161Z,0.10
2018-12-05T09:14:05.185Z,0.10
2018-12-05T09:15:05.318Z,0.20
2018-12-05T09:16:05.092Z,0.20
2018-12-05T09:17:07.738Z,0.20
2018-12-05T09:18:04.660Z,0.20
2018-12-05T09:19:04.827Z,0.30
2018-12-05T09:20:07.469Z,0.30
2018-12-05T09:21:05.479Z,0.30
2018-12-05T09:22:10.804Z,0.30
2018-12-05T09:23:04.830Z,0.30
2018-12-05T09:24:04.982Z,0.40
2018-12-05T09:25:05.124Z,0.40
2018-12-05T09:26:05.417Z,0.50
2018-12-05T09:27:05.705Z,0.40
2018-12-05T09:28:04.824Z,0.50
2018-12-05T09:29:05.751Z,0.50
2018-12-05T09:30:05.016Z,0.60
2018-12-05T09:31:05.324Z,0.60
2018-12-05T09:32:08.018Z,0.70
2018-12-05T09:33:07.585Z,0.70
2018-12-05T09:34:08.154Z,0.70
2018-12-05T09:35:05.105Z,0.70
2018-12-05T09:36:10.208Z,0.80
2018-12-05T09:37:05.229Z,0.80
2018-12-05T09:38:05.292Z,0.80
2018-12-05T09:39:05.497Z,0.90
2018-12-05T09:40:05.734Z,0.80
2018-12-05T09:41:04.893Z,0.90
2018-12-05T09:42:05.054Z,1.00
2018-12-05T09:43:07.894Z,1.00
2018-12-05T09:44:07.399Z,1.00
2018-12-05T09:45:07.884Z,1.00
2018-12-05T09:46:13.688Z,1.10
2018-12-05T09:47:05.634Z,1.10
2018-12-05T09:48:04.785Z,1.10
2018-12-05T09:49:05.430Z,1.20
2018-12-05T09:50:05.596Z,1.20
2018-12-05T09:51:04.761Z,1.20
2018-12-05T09:52:04.772Z,1.20
2018-12-05T09:53:04.874Z,1.30
2018-12-05T09:54:04.976Z,1.30
2018-12-05T09:55:05.134Z,1.30
2018-12-05T09:57:08.227Z,1.40
2018-12-05T09:58:05.188Z,1.40
2018-12-05T09:59:05.039Z,1.50
2018-12-05T10:00:05.199Z,1.50
2018-12-05T10:01:07.870Z,1.50
2018-12-05T10:02:04.796Z,1.60
2018-12-05T10:03:04.979Z,1.60
2018-12-05T10:04:05.032Z,1.60
2018-12-05T10:05:05.104Z,1.60
2018-12-05T10:06:05.271Z,1.70
2018-12-05T10:07:05.382Z,1.70
2018-12-05T10:08:05.559Z,1.70
2018-12-05T10:09:07.239Z,1.80
2018-12-05T10:10:07.722Z,1.90
2018-12-05T10:11:05.730Z,1.80
2018-12-05T10:12:07.520Z,1.90
2018-12-05T10:13:08.012Z,2.00
2018-12-05T10:14:04.954Z,2.00
2018-12-05T10:15:10.048Z,2.00
2018-12-05T10:16:07.502Z,2.00
2018-12-05T10:17:05.506Z,2.10
2018-12-05T10:18:05.647Z,2.10
2018-12-05T10:19:09.834Z,2.10
2018-12-05T10:20:04.794Z,2.10
2018-12-05T10:21:04.915Z,2.20
2018-12-05T10:22:05.111Z,2.20
2018-12-05T10:23:05.475Z,2.30
2018-12-05T10:24:05.369Z,2.30
2018-12-05T10:25:08.126Z,2.30
2018-12-05T10:26:05.017Z,2.30
2018-12-05T10:27:05.052Z,2.40
2018-12-05T10:28:05.547Z,2.40
2018-12-05T10:29:07.241Z,2.40
2018-12-05T10:30:07.635Z,2.40
2018-12-05T10:31:05.591Z,2.40
2018-12-05T10:32:05.135Z,2.50
2018-12-05T10:33:07.802Z,2.50
2018-12-05T10:34:07.287Z,2.50
2018-12-05T10:35:07.775Z,2.60
2018-12-05T10:36:04.686Z,2.60
2018-12-05T10:37:04.895Z,2.60
2018-12-05T10:38:04.962Z,2.70
2018-12-05T10:39:05.370Z,2.70
2018-12-05T10:40:07.463Z,2.70
2018-12-05T10:41:05.353Z,2.70
2018-12-05T10:42:05.475Z,2.70
2018-12-05T10:43:08.129Z,2.80
2018-12-05T10:44:05.112Z,2.80
2018-12-05T10:45:05.232Z,2.80
2018-12-05T10:46:05.350Z,2.90
2018-12-05T10:47:05.472Z,2.90
2018-12-05T10:48:05.748Z,2.90
2018-12-05T10:49:07.402Z,3.00
2018-12-05T10:50:05.451Z,2.90
2018-12-05T10:51:05.679Z,2.90
2018-12-05T10:52:07.462Z,3.00
2018-12-05T10:53:05.391Z,3.10
2018-12-05T10:54:05.533Z,3.10
2018-12-05T10:55:05.559Z,3.10
2018-12-05T10:56:08.152Z,3.20
2018-12-05T10:57:05.095Z,3.20
2018-12-05T10:58:05.098Z,3.30
2018-12-05T10:59:05.355Z,3.30
2018-12-05T11:00:08.093Z,3.40
2018-12-05T11:01:05.111Z,3.40
2018-12-05T11:02:05.210Z,3.40
2018-12-05T11:03:05.423Z,3.40
2018-12-05T11:04:05.551Z,3.50
2018-12-05T11:05:05.679Z,3.50
2018-12-05T11:06:07.397Z,3.60
2018-12-05T11:07:05.473Z,3.60
2018-12-05T11:08:08.156Z,3.60
2018-12-05T11:09:05.194Z,3.60
2018-12-05T11:10:05.230Z,3.60
2018-12-05T11:11:07.967Z,3.70
2018-12-05T11:12:13.772Z,3.70
2018-12-05T11:13:04.761Z,3.70
2018-12-05T11:14:05.006Z,3.70
2018-12-05T11:15:07.669Z,3.80
2018-12-05T11:16:08.181Z,3.90
2018-12-05T11:17:05.204Z,3.80
2018-12-05T11:18:05.437Z,3.90
2018-12-05T11:19:05.517Z,3.90
2018-12-05T11:20:08.146Z,4.00
2018-12-05T11:21:07.612Z,4.00
2018-12-05T11:22:08.209Z,4.00
2018-12-05T11:23:05.193Z,4.00
2018-12-05T11:24:07.746Z,4.10
2018-12-05T11:25:07.277Z,4.10
2018-12-05T11:26:05.189Z,4.10
2018-12-05T11:27:05.234Z,4.20
2018-12-05T11:28:07.908Z,4.20
2018-12-05T11:29:04.844Z,4.20
2018-12-05T11:30:07.574Z,4.30
2018-12-05T11:31:05.559Z,4.20
2018-12-05T11:32:07.178Z,4.30
2018-12-05T11:33:10.202Z,4.30
2018-12-05T11:34:05.316Z,4.30
2018-12-05T11:35:05.510Z,4.40
2018-12-05T11:36:04.726Z,4.40
2018-12-05T11:37:05.127Z,4.40
2018-12-05T11:38:05.230Z,4.40
2018-12-05T11:39:08.094Z,4.50
2018-12-05T11:40:05.090Z,4.50
2018-12-05T11:41:05.132Z,4.50
2018-12-05T11:42:05.281Z,4.50
2018-12-05T11:43:07.970Z,4.60
2018-12-05T11:44:04.930Z,4.60
2018-12-05T11:45:07.711Z,4.60
2018-12-05T11:46:05.751Z,4.60
2018-12-05T11:47:07.480Z,4.60
2018-12-05T11:48:05.469Z,4.60
2018-12-05T11:49:05.492Z,4.70
2018-12-05T11:50:08.125Z,4.70
2018-12-05T11:51:07.704Z,4.70
2018-12-05T11:52:05.812Z,4.70
2018-12-05T11:53:05.023Z,4.70
2018-12-05T11:54:05.140Z,4.70
2018-12-05T11:55:10.430Z,4.80
2018-12-05T11:56:05.418Z,4.80
2018-12-05T11:57:05.474Z,4.80
2018-12-05T11:58:05.696Z,4.80
2018-12-05T11:59:04.785Z,4.80
2018-12-05T12:00:05.202Z,4.90
2018-12-05T12:01:10.361Z,4.90
2018-12-05T12:02:05.339Z,4.80
2018-12-05T12:03:08.046Z,4.90
2018-12-05T12:04:10.126Z,4.90
2018-12-05T12:05:05.042Z,4.90
2018-12-05T12:06:05.244Z,4.90
2018-12-05T12:07:05.399Z,5.00
2018-12-05T12:08:05.576Z,5.00
2018-12-05T12:09:08.210Z,5.00
2018-12-05T12:10:05.203Z,5.00
2018-12-05T12:11:05.571Z,5.00
2018-12-05T12:12:04.754Z,5.00
2018-12-05T12:13:04.870Z,5.00
2018-12-05T12:14:07.903Z,5.10
2018-12-05T12:15:05.031Z,5.10
2018-12-05T12:16:05.158Z,5.10
2018-12-05T12:17:08.011Z,5.10
2018-12-05T12:18:04.898Z,5.10
2018-12-05T12:19:05.088Z,5.10
2018-12-05T12:20:05.225Z,5.10
2018-12-05T12:21:05.665Z,5.20
2018-12-05T12:22:07.277Z,5.20
2018-12-05T12:23:05.380Z,5.10
2018-12-05T12:24:05.662Z,5.20
2018-12-05T12:25:04.750Z,5.20
2018-12-05T12:26:04.843Z,5.20
2018-12-05T12:27:07.589Z,5.20
2018-12-05T12:28:05.572Z,5.20
2018-12-05T12:29:05.257Z,5.20
2018-12-05T12:30:05.519Z,5.30
2018-12-05T12:31:14.046Z,5.30
2018-12-05T12:32:05.042Z,5.30
2018-12-05T12:33:05.172Z,5.30
2018-12-05T12:34:08.003Z,5.30
2018-12-05T12:35:04.962Z,5.30
2018-12-05T12:36:05.063Z,5.30
2018-12-05T12:37:05.079Z,5.30
2018-12-05T12:38:07.947Z,5.30
2018-12-05T12:39:04.939Z,5.30
2018-12-05T12:40:07.530Z,5.30
2018-12-05T12:41:05.547Z,5.30
2018-12-05T12:42:08.279Z,5.30
2018-12-05T12:43:05.262Z,5.30
2018-12-05T12:44:05.379Z,5.30
2018-12-05T12:45:05.473Z,5.40
2018-12-05T12:46:08.252Z,5.30
2018-12-05T12:47:05.251Z,5.40
2018-12-05T12:48:05.409Z,5.40
2018-12-05T12:49:05.047Z,5.30
2018-12-05T12:50:05.318Z,5.30
2018-12-05T12:51:08.073Z,5.40
2018-12-05T12:52:05.129Z,5.30
2018-12-05T12:53:05.421Z,5.40
2018-12-05T12:54:05.601Z,5.40
2018-12-05T12:55:07.340Z,5.40
2018-12-05T12:56:07.842Z,5.40
2018-12-05T12:57:04.856Z,5.40
2018-12-05T12:58:05.069Z,5.40
2018-12-05T12:59:05.191Z,5.40
2018-12-05T13:00:05.282Z,5.40
2018-12-05T13:01:05.504Z,5.40